Accueil
METAR-TAF:

METAR-TAF

Aéroports :

Aérodrome de Maré - La Roche

Maré, Nouvelle-Calédonie

latitude: 21-28-53S, longitude: 168-02-15E, altitude: 42 m

METAR: absent

Heure: 09:27 (22:27 UTC)

Prévision

Le bulletin a été fait il y a 3 heures et 26 minutes, à 19:01 UTC
Prévision valable du 18 à 19 UTC au 19 à 18 UTC
Vent 5 kt de est
Visibilité 10 km ou plus
Nuages épars à une hauteur de 1500 ft
Nuages épars à une hauteur de 3500 ft
Evoluant progressivement
du 18 à 22 UTC au 18 à 24 UTC
Vent 15 kt de est/sud-est
Probabilité 30% :
Temporairement
du 18 à 19 UTC au 19 à 08 UTC
Visibilité: 4000 m
Nuages fragmentés à une hauteur de 1400 ft
Nuages épars à une hauteur de 2000 ft, Cumulus congestus.
averses de pluie
Evoluant progressivement
du 19 à 08 UTC au 19 à 10 UTC
Vent 5 kt de est

TAF: NWWR 181901Z 1819/1918 09005KT 9999 SCT015 SCT035 BECMG 1822/1824 11015KT PROB30 TEMPO 1819/1908 4000 SHRA BKN014 SCT020TCU BECMG 1908/1910 09005KT

Observations et prévisions météorologiques de plus de 4000 aéroports (messages METAR et TAF).

Les stations disponibles sont représentées par des disques jaunes et rouges sur la carte.

Passer la souris dessus pour voir le nom de la station.

Cliquer dessus pour voir les observations et prévisions météorologiques.

Pour changer de carte: cliquez sur les boutons verts avec une croix noire pour zoomer, sur le bouton vert avec un tiret pour effectuer un zoom arrière, ou sur les flèches vertes pour les cartes adjacentes.


METAR-TAF: